createdAt,value
2022-11-25T00:01:34.252Z,46.84
2022-11-25T00:04:04.286Z,46.72
2022-11-25T00:06:34.786Z,46.50
2022-11-25T00:09:06.288Z,46.66
2022-11-25T00:11:36.506Z,46.60
2022-11-25T00:14:05.307Z,46.26
2022-11-25T00:16:33.816Z,46.53
2022-11-25T00:19:03.926Z,46.46
2022-11-25T00:21:34.890Z,46.58
2022-11-25T00:24:05.928Z,46.49
2022-11-25T00:26:36.168Z,46.30
2022-11-25T00:29:07.899Z,46.51
2022-11-25T00:31:39.911Z,46.42
2022-11-25T00:34:13.294Z,46.59
2022-11-25T00:36:41.980Z,46.46
2022-11-25T00:39:13.095Z,46.30
2022-11-25T00:41:59.588Z,46.27
2022-11-25T00:44:38.168Z,46.53
2022-11-25T00:47:10.580Z,46.60
2022-11-25T00:49:42.039Z,46.57
2022-11-25T00:52:14.056Z,46.60
2022-11-25T00:54:42.719Z,46.39
2022-11-25T00:57:11.186Z,46.29
2022-11-25T00:59:40.228Z,46.32
2022-11-25T01:02:09.226Z,46.44
2022-11-25T01:04:38.380Z,46.24
2022-11-25T01:07:08.647Z,46.18
2022-11-25T01:09:37.516Z,46.17
2022-11-25T01:12:06.791Z,46.45
2022-11-25T01:14:36.366Z,46.15
2022-11-25T01:17:05.273Z,46.28
2022-11-25T01:19:35.013Z,46.30
2022-11-25T01:22:03.881Z,46.04
2022-11-25T01:24:34.438Z,46.09
2022-11-25T01:27:03.122Z,46.42
2022-11-25T01:29:31.722Z,46.28
2022-11-25T01:32:00.319Z,46.52
2022-11-25T01:34:31.953Z,46.28
2022-11-25T01:37:00.461Z,46.22
2022-11-25T01:39:32.893Z,46.25
2022-11-25T01:42:03.607Z,46.19
2022-11-25T01:44:34.146Z,46.25
2022-11-25T01:47:11.447Z,46.05
2022-11-25T01:49:44.795Z,46.04
2022-11-25T01:52:19.824Z,46.38
2022-11-25T01:54:54.412Z,45.91
2022-11-25T01:57:27.551Z,46.10
2022-11-25T02:00:00.383Z,45.81
2022-11-25T02:02:30.187Z,46.05
2022-11-25T02:05:01.269Z,46.10
2022-11-25T02:07:36.266Z,45.87
2022-11-25T02:10:09.565Z,46.02
2022-11-25T02:12:42.378Z,45.92
2022-11-25T02:15:11.907Z,45.90
2022-11-25T02:17:40.555Z,46.05
2022-11-25T02:20:11.406Z,45.97
2022-11-25T02:22:52.984Z,45.81
2022-11-25T02:25:25.326Z,45.83
2022-11-25T02:27:58.753Z,46.02
2022-11-25T02:30:27.319Z,45.87
2022-11-25T02:32:55.920Z,45.96
2022-11-25T02:35:33.324Z,45.80
2022-11-25T02:38:07.103Z,45.64
2022-11-25T02:40:41.743Z,45.54
2022-11-25T02:43:10.838Z,45.94
2022-11-25T02:45:54.087Z,45.83
2022-11-25T02:48:39.683Z,45.81
2022-11-25T02:51:13.479Z,45.53
2022-11-25T02:53:42.862Z,45.62
2022-11-25T02:56:14.954Z,45.88
2022-11-25T02:58:44.074Z,45.57
2022-11-25T03:01:12.843Z,45.84
2022-11-25T03:03:41.675Z,45.56
2022-11-25T03:06:10.317Z,45.96
2022-11-25T03:08:39.700Z,45.80
2022-11-25T03:11:11.170Z,45.80
2022-11-25T03:13:41.769Z,45.54
2022-11-25T03:16:11.184Z,45.85
2022-11-25T03:18:39.905Z,45.62
2022-11-25T03:21:08.401Z,45.84
2022-11-25T03:23:36.966Z,45.80
2022-11-25T03:26:06.968Z,45.50
2022-11-25T03:28:35.779Z,45.56
2022-11-25T03:31:05.652Z,45.57
2022-11-25T03:33:34.390Z,45.50
2022-11-25T03:36:02.939Z,45.48
2022-11-25T03:38:31.410Z,45.72
2022-11-25T03:40:59.981Z,45.56
2022-11-25T03:43:28.975Z,45.72
2022-11-25T03:45:58.156Z,45.44
2022-11-25T03:48:27.943Z,45.40
2022-11-25T03:50:56.810Z,45.31
2022-11-25T03:53:27.178Z,45.41
2022-11-25T03:55:55.702Z,45.35
2022-11-25T03:58:26.866Z,45.56
2022-11-25T04:00:56.307Z,45.65
2022-11-25T04:03:24.812Z,45.25
2022-11-25T04:05:54.830Z,45.41
2022-11-25T04:08:24.375Z,45.41
2022-11-25T04:10:52.982Z,45.46
2022-11-25T04:13:24.904Z,45.59
2022-11-25T04:15:54.279Z,45.37
2022-11-25T04:18:23.214Z,45.42
2022-11-25T04:20:58.092Z,45.21
2022-11-25T04:23:26.994Z,45.32
2022-11-25T04:26:02.855Z,45.33
2022-11-25T04:28:36.458Z,45.53
2022-11-25T04:31:07.765Z,45.27
2022-11-25T04:33:39.402Z,45.44
2022-11-25T04:36:11.084Z,45.47
2022-11-25T04:38:39.714Z,45.32
2022-11-25T04:41:09.793Z,45.50
2022-11-25T04:43:42.146Z,45.50
2022-11-25T04:46:17.884Z,45.20
2022-11-25T04:48:50.175Z,45.19
2022-11-25T04:51:20.168Z,45.38
2022-11-25T04:53:52.299Z,45.18
2022-11-25T04:56:21.810Z,45.42
2022-11-25T04:59:10.572Z,45.28
2022-11-25T05:01:42.771Z,45.34
2022-11-25T05:04:34.090Z,45.11
2022-11-25T05:07:04.174Z,45.23
2022-11-25T05:09:32.751Z,45.29
2022-11-25T05:12:25.000Z,45.19
2022-11-25T05:14:54.504Z,45.20
2022-11-25T05:17:29.549Z,45.26
2022-11-25T05:19:58.116Z,45.13
2022-11-25T05:22:30.130Z,44.92
2022-11-25T05:24:58.973Z,45.03
2022-11-25T05:27:28.215Z,45.08
2022-11-25T05:29:59.559Z,45.05
2022-11-25T05:32:28.054Z,45.25
2022-11-25T05:34:59.747Z,44.99
2022-11-25T05:37:29.530Z,45.26
2022-11-25T05:40:05.307Z,45.21
2022-11-25T05:42:57.584Z,45.08
2022-11-25T05:45:26.086Z,45.01
2022-11-25T05:47:56.278Z,45.24
2022-11-25T05:50:27.587Z,44.95
2022-11-25T05:53:07.542Z,44.98
2022-11-25T05:55:37.604Z,44.95
2022-11-25T05:58:11.018Z,45.36
2022-11-25T06:00:39.467Z,45.60
2022-11-25T06:03:11.787Z,46.04
2022-11-25T06:05:41.198Z,46.42
2022-11-25T06:08:11.943Z,46.40
2022-11-25T06:10:40.833Z,46.56
2022-11-25T06:13:10.041Z,46.43
2022-11-25T06:15:42.306Z,46.15
2022-11-25T06:18:12.621Z,46.45
2022-11-25T06:20:41.288Z,46.26
2022-11-25T06:23:11.636Z,46.33
2022-11-25T06:25:41.450Z,46.21
2022-11-25T06:28:13.608Z,46.14
2022-11-25T06:30:46.351Z,45.81
2022-11-25T06:33:24.760Z,46.01
2022-11-25T06:35:53.267Z,45.81
2022-11-25T06:38:23.044Z,45.78
2022-11-25T06:40:54.009Z,46.16
2022-11-25T06:43:22.609Z,45.75
2022-11-25T06:45:51.121Z,45.69
2022-11-25T06:48:19.733Z,45.87
2022-11-25T06:50:57.002Z,46.04
2022-11-25T06:53:27.105Z,46.78
2022-11-25T06:56:07.030Z,46.57
2022-11-25T06:58:36.763Z,46.68
2022-11-25T07:01:07.868Z,47.30
2022-11-25T07:03:36.466Z,47.39
2022-11-25T07:06:05.679Z,47.27
2022-11-25T07:08:35.560Z,47.47
2022-11-25T07:11:05.812Z,47.71
2022-11-25T07:13:34.675Z,47.65
2022-11-25T07:16:03.860Z,47.59
2022-11-25T07:18:33.286Z,47.55
2022-11-25T07:21:06.950Z,47.75
2022-11-25T07:23:37.808Z,47.94
2022-11-25T07:26:08.976Z,48.19
2022-11-25T07:28:38.120Z,48.27
2022-11-25T07:31:27.516Z,48.33
2022-11-25T07:33:58.487Z,48.38
2022-11-25T07:36:27.885Z,48.33
2022-11-25T07:38:59.094Z,47.98
2022-11-25T07:41:28.882Z,48.51
2022-11-25T07:44:00.159Z,48.31
2022-11-25T07:46:30.346Z,48.53
2022-11-25T07:49:01.432Z,48.72
2022-11-25T07:51:32.244Z,48.31
2022-11-25T07:54:03.751Z,48.38
2022-11-25T07:56:34.304Z,48.19
2022-11-25T07:59:03.203Z,47.92
2022-11-25T08:01:31.679Z,48.38
2022-11-25T08:04:00.241Z,48.23
2022-11-25T08:06:30.346Z,48.39
2022-11-25T08:09:00.061Z,48.07
2022-11-25T08:11:33.065Z,48.42
2022-11-25T08:14:01.616Z,48.40
2022-11-25T08:16:32.051Z,47.92
2022-11-25T08:19:02.684Z,46.86
2022-11-25T08:21:31.256Z,46.29
2022-11-25T08:23:59.787Z,46.01
2022-11-25T08:26:31.202Z,45.59
2022-11-25T08:29:00.845Z,45.47
2022-11-25T08:31:31.240Z,45.35
2022-11-25T08:34:00.614Z,45.36
2022-11-25T08:36:32.002Z,45.45
2022-11-25T08:39:03.259Z,44.90
2022-11-25T08:41:37.028Z,44.97
2022-11-25T08:44:08.371Z,45.08
2022-11-25T08:46:39.540Z,45.02
2022-11-25T08:49:10.492Z,45.24
2022-11-25T08:51:39.962Z,45.98
2022-11-25T08:54:09.807Z,45.90
2022-11-25T08:56:39.705Z,45.81
2022-11-25T08:59:08.142Z,45.92
2022-11-25T09:01:36.757Z,45.63
2022-11-25T09:04:05.399Z,45.93
2022-11-25T09:06:33.888Z,45.83
2022-11-25T09:09:02.419Z,45.61
2022-11-25T09:11:30.900Z,45.56
2022-11-25T09:14:00.803Z,45.59
2022-11-25T09:16:29.440Z,45.80
2022-11-25T09:18:59.917Z,45.57
2022-11-25T09:21:28.363Z,45.18
2022-11-25T09:23:56.867Z,45.26
2022-11-25T09:26:27.610Z,45.05
2022-11-25T09:28:56.635Z,45.03
2022-11-25T09:31:26.560Z,45.16
2022-11-25T09:33:55.217Z,45.03
2022-11-25T09:36:24.850Z,45.06
2022-11-25T09:38:53.467Z,45.21
2022-11-25T09:42:01.387Z,45.16
2022-11-25T09:44:59.589Z,45.08
2022-11-25T09:47:42.291Z,44.80
2022-11-25T09:50:21.024Z,45.04
2022-11-25T09:53:00.018Z,44.96
2022-11-25T09:55:34.261Z,44.90
2022-11-25T09:58:15.324Z,44.79
2022-11-25T10:00:46.185Z,44.78
2022-11-25T10:03:26.376Z,44.60
2022-11-25T10:06:04.050Z,44.62
2022-11-25T10:08:37.446Z,44.88
2022-11-25T10:11:17.795Z,44.56
2022-11-25T10:13:53.562Z,44.87
2022-11-25T10:16:33.381Z,44.89
2022-11-25T10:19:12.012Z,44.75
2022-11-25T10:21:40.912Z,44.74
2022-11-25T10:24:15.492Z,44.71
2022-11-25T10:26:46.267Z,44.54
2022-11-25T10:29:27.390Z,44.59
2022-11-25T10:32:03.993Z,44.61
2022-11-25T10:34:37.979Z,44.76
2022-11-25T10:37:12.119Z,44.55
2022-11-25T10:39:40.716Z,44.52
2022-11-25T10:42:17.217Z,44.62
2022-11-25T10:44:45.758Z,44.82
2022-11-25T10:47:27.203Z,44.85
2022-11-25T10:50:14.726Z,44.85
2022-11-25T10:52:49.816Z,44.71
2022-11-25T10:55:20.522Z,44.65
2022-11-25T10:57:49.020Z,44.88
2022-11-25T11:00:30.901Z,44.57
2022-11-25T11:03:02.775Z,44.70
2022-11-25T11:05:32.952Z,44.53
2022-11-25T11:08:10.866Z,44.92
2022-11-25T11:10:39.585Z,44.60
2022-11-25T11:13:22.201Z,44.80
2022-11-25T11:15:52.866Z,44.79
2022-11-25T11:18:28.328Z,44.70
2022-11-25T11:21:00.627Z,44.88
2022-11-25T11:23:30.390Z,44.58
2022-11-25T11:26:02.130Z,44.53
2022-11-25T11:28:39.655Z,45.02
2022-11-25T11:31:18.071Z,45.24
2022-11-25T11:33:53.955Z,45.88
2022-11-25T11:36:43.430Z,46.14
2022-11-25T11:39:29.559Z,46.43
2022-11-25T11:42:08.911Z,46.36
2022-11-25T11:44:52.485Z,47.04
2022-11-25T11:47:27.860Z,47.06
2022-11-25T11:50:17.935Z,46.93
2022-11-25T11:52:55.691Z,47.79
2022-11-25T11:56:11.902Z,47.49
2022-11-25T11:58:50.609Z,47.26
2022-11-25T12:01:33.925Z,47.63
2022-11-25T12:04:14.929Z,47.36
2022-11-25T12:06:50.774Z,47.19
2022-11-25T12:09:24.370Z,45.99
2022-11-25T12:11:58.701Z,45.84
2022-11-25T12:14:37.261Z,45.55
2022-11-25T12:17:14.010Z,44.38
2022-11-25T12:19:51.161Z,44.43
2022-11-25T12:22:24.518Z,44.19
2022-11-25T12:25:02.506Z,43.65
2022-11-25T12:27:36.033Z,42.31
2022-11-25T12:30:07.131Z,42.64
2022-11-25T12:32:52.687Z,42.75
2022-11-25T12:35:28.947Z,41.89
2022-11-25T12:38:06.271Z,42.11
2022-11-25T12:40:42.428Z,41.77
2022-11-25T12:43:25.077Z,41.87
2022-11-25T12:46:04.430Z,41.85
2022-11-25T12:48:33.459Z,41.52
2022-11-25T12:51:11.437Z,41.86
2022-11-25T12:53:48.201Z,41.87
2022-11-25T12:56:23.364Z,41.84
2022-11-25T12:59:00.778Z,41.45
2022-11-25T13:01:52.892Z,41.57
2022-11-25T13:08:01.831Z,41.73
2022-11-25T13:10:43.441Z,41.83
2022-11-25T13:10:55.399Z,41.80
2022-11-25T13:13:33.970Z,41.60
2022-11-25T13:16:06.651Z,41.46
2022-11-25T13:18:40.943Z,41.46
2022-11-25T13:21:11.460Z,41.36
2022-11-25T13:23:49.378Z,41.59
2022-11-25T13:26:46.548Z,41.54
2022-11-25T13:30:04.053Z,41.62
2022-11-25T13:32:41.142Z,41.62
2022-11-25T13:35:54.087Z,41.75
2022-11-25T13:38:59.922Z,42.52
2022-11-25T13:41:37.302Z,42.00
2022-11-25T13:44:12.886Z,41.39
2022-11-25T13:46:44.639Z,41.75
2022-11-25T13:49:31.200Z,42.71
2022-11-25T13:52:02.464Z,43.13
2022-11-25T13:54:40.597Z,42.97
2022-11-25T13:57:20.921Z,43.23
2022-11-25T13:59:52.666Z,42.89
2022-11-25T14:02:49.562Z,43.14
2022-11-25T14:06:02.949Z,43.25
2022-11-25T14:08:40.160Z,43.31
2022-11-25T14:11:42.520Z,43.48
2022-11-25T14:14:28.678Z,43.41
2022-11-25T14:17:16.242Z,43.38
2022-11-25T14:20:18.282Z,43.69
2022-11-25T14:23:10.127Z,43.90
2022-11-25T14:25:49.297Z,43.65
2022-11-25T14:28:28.088Z,43.46
2022-11-25T14:31:01.298Z,43.52
2022-11-25T14:33:35.289Z,43.58
2022-11-25T14:36:06.485Z,43.67
2022-11-25T14:38:41.507Z,43.46
2022-11-25T14:41:18.703Z,43.90
2022-11-25T14:43:52.464Z,44.00
2022-11-25T14:46:23.025Z,43.69
2022-11-25T14:48:55.140Z,43.69
2022-11-25T14:51:25.253Z,43.67
2022-11-25T14:53:54.392Z,44.04
2022-11-25T14:56:27.960Z,44.75
2022-11-25T14:58:58.804Z,45.25
2022-11-25T15:01:29.125Z,45.76
2022-11-25T15:04:06.457Z,45.53
2022-11-25T15:06:37.040Z,46.28
2022-11-25T15:09:19.525Z,46.31
2022-11-25T15:11:52.143Z,46.27
2022-11-25T15:14:26.279Z,46.06
2022-11-25T15:16:55.292Z,45.88
2022-11-25T15:19:32.147Z,46.34
2022-11-25T15:24:56.344Z,45.29
2022-11-25T15:27:27.833Z,45.44
2022-11-25T15:29:58.441Z,45.32
2022-11-25T15:32:29.131Z,45.59
2022-11-25T15:34:59.766Z,45.81
2022-11-25T15:37:29.702Z,45.78
2022-11-25T15:40:33.715Z,45.44
2022-11-25T15:43:06.492Z,45.47
2022-11-25T15:45:44.642Z,45.80
2022-11-25T15:48:18.330Z,45.81
2022-11-25T15:50:46.893Z,45.66
2022-11-25T15:53:28.829Z,45.52
2022-11-25T15:56:02.432Z,45.67
2022-11-25T15:58:32.480Z,45.62
2022-11-25T16:01:05.942Z,45.78
2022-11-25T16:03:35.738Z,45.86
2022-11-25T16:06:21.178Z,45.76
2022-11-25T16:08:54.532Z,45.16
2022-11-25T16:11:25.465Z,45.35
2022-11-25T16:13:56.207Z,45.64
2022-11-25T16:16:27.245Z,45.56
2022-11-25T16:19:11.533Z,45.54
2022-11-25T16:21:44.475Z,45.56
2022-11-25T16:24:24.800Z,45.67
2022-11-25T16:26:56.378Z,45.83
2022-11-25T16:29:31.171Z,46.18
2022-11-25T16:32:00.264Z,46.14
2022-11-25T16:34:29.656Z,45.82
2022-11-25T16:36:58.156Z,46.36
2022-11-25T16:39:26.637Z,46.19
2022-11-25T16:42:02.500Z,45.94
2022-11-25T16:44:34.345Z,45.82
2022-11-25T16:47:03.067Z,46.11
2022-11-25T16:49:32.913Z,46.27
2022-11-25T16:52:01.625Z,45.95
2022-11-25T16:54:31.240Z,46.40
2022-11-25T16:56:59.970Z,45.92
2022-11-25T16:59:33.844Z,45.92
2022-11-25T17:02:02.922Z,46.41
2022-11-25T17:04:31.576Z,45.86
2022-11-25T17:09:48.893Z,46.32
2022-11-25T17:12:20.801Z,46.49
2022-11-25T17:14:50.980Z,46.12
2022-11-25T17:17:24.654Z,45.94
2022-11-25T17:19:53.637Z,46.38
2022-11-25T17:22:24.388Z,46.47
2022-11-25T17:24:53.752Z,46.11
2022-11-25T17:27:25.094Z,46.51
2022-11-25T17:29:56.863Z,46.51
2022-11-25T17:32:25.879Z,46.69
2022-11-25T17:34:54.590Z,46.72
2022-11-25T17:37:24.799Z,46.64
2022-11-25T17:39:53.946Z,46.33
2022-11-25T17:42:27.979Z,46.93
2022-11-25T17:44:58.068Z,46.52
2022-11-25T17:47:26.589Z,46.73
2022-11-25T17:49:55.183Z,46.70
2022-11-25T17:52:23.739Z,46.95
2022-11-25T17:54:52.177Z,46.52
2022-11-25T17:57:23.299Z,46.45
2022-11-25T17:59:51.769Z,46.24
2022-11-25T18:02:23.399Z,46.57
2022-11-25T18:04:52.070Z,46.64
2022-11-25T18:07:20.578Z,46.76
2022-11-25T18:09:49.203Z,46.30
2022-11-25T18:12:24.519Z,46.73
2022-11-25T18:14:53.123Z,46.38
2022-11-25T18:17:22.984Z,46.72
2022-11-25T18:19:54.961Z,46.60
2022-11-25T18:22:24.760Z,46.50
2022-11-25T18:24:54.061Z,46.65
2022-11-25T18:27:26.789Z,46.42
2022-11-25T18:29:56.323Z,45.59
2022-11-25T18:32:26.557Z,45.09
2022-11-25T18:34:55.067Z,44.89
2022-11-25T18:37:23.755Z,44.26
2022-11-25T18:39:52.321Z,43.44
2022-11-25T18:42:25.495Z,43.76
2022-11-25T18:44:55.821Z,43.73
2022-11-25T18:47:27.257Z,44.06
2022-11-25T18:49:56.609Z,44.21
2022-11-25T18:52:25.280Z,44.54
2022-11-25T18:54:53.850Z,44.54
2022-11-25T18:57:22.438Z,44.78
2022-11-25T19:00:10.669Z,44.44
2022-11-25T19:02:40.910Z,44.88
2022-11-25T19:05:31.020Z,45.17
2022-11-25T19:07:59.584Z,45.84
2022-11-25T19:10:30.540Z,45.91
2022-11-25T19:13:02.720Z,46.08
2022-11-25T19:15:31.281Z,45.94
2022-11-25T19:18:04.542Z,46.20
2022-11-25T19:20:33.360Z,46.29
2022-11-25T19:23:12.767Z,46.39
2022-11-25T19:25:41.287Z,46.28
2022-11-25T19:28:14.675Z,46.37
2022-11-25T19:30:44.447Z,46.51
2022-11-25T19:33:24.087Z,46.26
2022-11-25T19:35:53.200Z,46.24
2022-11-25T19:38:26.089Z,46.00
2022-11-25T19:40:55.705Z,46.14
2022-11-25T19:43:26.932Z,46.54
2022-11-25T19:45:56.065Z,46.58
2022-11-25T19:48:29.332Z,46.67
2022-11-25T19:51:02.142Z,46.40
2022-11-25T19:53:34.192Z,46.50
2022-11-25T19:56:04.688Z,46.63
2022-11-25T19:58:33.506Z,46.42
2022-11-25T20:01:04.408Z,46.65
2022-11-25T20:03:34.336Z,46.68
2022-11-25T20:06:02.817Z,46.67
2022-11-25T20:08:31.326Z,46.81
2022-11-25T20:10:59.860Z,46.50
2022-11-25T20:13:28.309Z,46.63
2022-11-25T20:15:58.689Z,46.95
2022-11-25T20:18:28.212Z,47.02
2022-11-25T20:21:02.773Z,46.67
2022-11-25T20:23:40.088Z,46.98
2022-11-25T20:26:16.226Z,46.99
2022-11-25T20:28:44.805Z,46.95
2022-11-25T20:31:14.665Z,47.06
2022-11-25T20:33:43.287Z,47.15
2022-11-25T20:36:16.476Z,46.83
2022-11-25T20:38:48.364Z,46.55
2022-11-25T20:41:19.764Z,47.18
2022-11-25T20:43:52.126Z,46.63
2022-11-25T20:46:23.562Z,47.11
2022-11-25T20:48:55.638Z,46.96
2022-11-25T20:51:25.863Z,47.27
2022-11-25T20:53:57.586Z,46.80
2022-11-25T20:56:27.744Z,46.75
2022-11-25T20:58:56.795Z,47.29
2022-11-25T21:01:25.587Z,47.15
2022-11-25T21:03:54.214Z,47.04
2022-11-25T21:06:27.502Z,47.31
2022-11-25T21:08:58.398Z,47.08
2022-11-25T21:11:28.126Z,47.28
2022-11-25T21:13:56.676Z,47.45
2022-11-25T21:16:25.746Z,47.24
2022-11-25T21:18:54.400Z,47.46
2022-11-25T21:21:29.565Z,47.08
2022-11-25T21:23:58.743Z,47.36
2022-11-25T21:26:27.842Z,46.88
2022-11-25T21:28:56.537Z,47.28
2022-11-25T21:31:26.803Z,46.76
2022-11-25T21:33:58.835Z,46.86
2022-11-25T21:36:30.418Z,46.82
2022-11-25T21:39:04.418Z,46.83
2022-11-25T21:41:33.193Z,46.85
2022-11-25T21:44:02.198Z,46.55
2022-11-25T21:46:30.666Z,46.88
2022-11-25T21:48:59.180Z,46.46
2022-11-25T21:51:29.033Z,46.55
2022-11-25T21:53:57.580Z,46.51
2022-11-25T21:56:28.164Z,46.51
2022-11-25T21:58:57.617Z,46.47
2022-11-25T22:01:26.333Z,46.47
2022-11-25T22:03:55.398Z,46.67
2022-11-25T22:06:26.369Z,46.32
2022-11-25T22:08:56.864Z,46.64
2022-11-25T22:11:30.410Z,46.51
2022-11-25T22:14:01.307Z,46.67
2022-11-25T22:16:32.181Z,46.69
2022-11-25T22:19:01.251Z,46.66
2022-11-25T22:21:29.775Z,46.29
2022-11-25T22:23:59.611Z,46.29
2022-11-25T22:26:30.614Z,46.58
2022-11-25T22:29:00.892Z,46.24
2022-11-25T22:31:30.069Z,46.35
2022-11-25T22:33:58.651Z,46.57
2022-11-25T22:36:34.046Z,46.11
2022-11-25T22:39:14.034Z,46.47
2022-11-25T22:41:44.271Z,46.18
2022-11-25T22:44:19.695Z,46.56
2022-11-25T22:46:49.050Z,46.37
2022-11-25T22:49:31.270Z,46.06
2022-11-25T22:51:59.955Z,46.34
2022-11-25T22:54:29.780Z,46.42
2022-11-25T22:56:58.379Z,46.44
2022-11-25T22:59:26.782Z,46.39
2022-11-25T23:01:55.330Z,46.54
2022-11-25T23:04:23.856Z,46.33
2022-11-25T23:06:53.710Z,46.38
2022-11-25T23:09:22.862Z,46.59
2022-11-25T23:11:52.705Z,46.09
2022-11-25T23:14:21.157Z,46.47
2022-11-25T23:16:49.679Z,46.23
2022-11-25T23:19:18.343Z,46.63
2022-11-25T23:21:46.808Z,46.19
2022-11-25T23:24:17.911Z,46.64
2022-11-25T23:26:46.434Z,46.35
2022-11-25T23:29:16.286Z,46.27
2022-11-25T23:31:44.811Z,46.27
2022-11-25T23:34:14.263Z,46.38
2022-11-25T23:36:45.746Z,46.54
2022-11-25T23:39:20.999Z,46.04
2022-11-25T23:41:49.984Z,46.41
2022-11-25T23:44:24.340Z,46.52
2022-11-25T23:46:54.026Z,46.22
2022-11-25T23:49:26.426Z,46.25
2022-11-25T23:51:57.398Z,46.41
2022-11-25T23:54:40.280Z,46.35
2022-11-25T23:57:15.054Z,46.38
2022-11-25T23:59:45.594Z,46.10
